sensor_id;sensor_type;location;lat;lon;timestamp;P1;durP1;ratioP1;P2;durP2;ratioP2
23745;SDS011;12053;48.878;9.632;2023-04-25T00:00:15;4.75;;;2.53;;
23745;SDS011;12053;48.878;9.632;2023-04-25T00:02:43;4.85;;;2.97;;
23745;SDS011;12053;48.878;9.632;2023-04-25T00:05:12;3.88;;;2.70;;
23745;SDS011;12053;48.878;9.632;2023-04-25T00:07:41;2.83;;;2.47;;
23745;SDS011;12053;48.878;9.632;2023-04-25T00:10:09;4.05;;;2.42;;
23745;SDS011;12053;48.878;9.632;2023-04-25T00:12:38;3.67;;;2.30;;
23745;SDS011;12053;48.878;9.632;2023-04-25T00:15:05;4.70;;;2.67;;
23745;SDS011;12053;48.878;9.632;2023-04-25T00:17:32;3.17;;;2.50;;
23745;SDS011;12053;48.878;9.632;2023-04-25T00:20:01;4.65;;;2.85;;
23745;SDS011;12053;48.878;9.632;2023-04-25T00:22:31;3.10;;;2.60;;
23745;SDS011;12053;48.878;9.632;2023-04-25T00:24:58;4.15;;;2.50;;
23745;SDS011;12053;48.878;9.632;2023-04-25T00:27:26;4.05;;;2.80;;
23745;SDS011;12053;48.878;9.632;2023-04-25T00:29:53;2.70;;;2.50;;
23745;SDS011;12053;48.878;9.632;2023-04-25T00:32:20;5.55;;;2.90;;
23745;SDS011;12053;48.878;9.632;2023-04-25T00:34:47;3.92;;;2.70;;
23745;SDS011;12053;48.878;9.632;2023-04-25T00:37:15;3.60;;;2.70;;
23745;SDS011;12053;48.878;9.632;2023-04-25T00:39:42;4.82;;;2.90;;
23745;SDS011;12053;48.878;9.632;2023-04-25T00:42:09;3.83;;;2.58;;
23745;SDS011;12053;48.878;9.632;2023-04-25T00:44:36;4.47;;;2.78;;
23745;SDS011;12053;48.878;9.632;2023-04-25T00:47:04;4.68;;;3.00;;
23745;SDS011;12053;48.878;9.632;2023-04-25T00:49:31;4.43;;;2.92;;
23745;SDS011;12053;48.878;9.632;2023-04-25T00:51:58;3.20;;;2.72;;
23745;SDS011;12053;48.878;9.632;2023-04-25T00:54:26;4.45;;;2.80;;
23745;SDS011;12053;48.878;9.632;2023-04-25T00:56:53;5.28;;;3.08;;
23745;SDS011;12053;48.878;9.632;2023-04-25T00:59:20;5.18;;;3.08;;
23745;SDS011;12053;48.878;9.632;2023-04-25T01:01:48;4.68;;;2.65;;
23745;SDS011;12053;48.878;9.632;2023-04-25T01:04:15;4.05;;;2.75;;
23745;SDS011;12053;48.878;9.632;2023-04-25T01:06:42;5.43;;;2.88;;
23745;SDS011;12053;48.878;9.632;2023-04-25T01:09:09;4.47;;;2.88;;
23745;SDS011;12053;48.878;9.632;2023-04-25T01:11:37;3.40;;;2.47;;
23745;SDS011;12053;48.878;9.632;2023-04-25T01:14:06;4.50;;;3.22;;
23745;SDS011;12053;48.878;9.632;2023-04-25T01:16:33;6.40;;;3.03;;
23745;SDS011;12053;48.878;9.632;2023-04-25T01:19:00;3.85;;;3.00;;
23745;SDS011;12053;48.878;9.632;2023-04-25T01:21:28;4.57;;;3.00;;
23745;SDS011;12053;48.878;9.632;2023-04-25T01:23:56;4.85;;;3.10;;
23745;SDS011;12053;48.878;9.632;2023-04-25T01:26:24;4.18;;;3.40;;
23745;SDS011;12053;48.878;9.632;2023-04-25T01:28:51;4.28;;;3.05;;
23745;SDS011;12053;48.878;9.632;2023-04-25T01:31:19;6.30;;;3.17;;
23745;SDS011;12053;48.878;9.632;2023-04-25T01:33:46;3.72;;;3.25;;
23745;SDS011;12053;48.878;9.632;2023-04-25T01:36:14;4.00;;;3.10;;
23745;SDS011;12053;48.878;9.632;2023-04-25T01:38:41;4.93;;;3.03;;
23745;SDS011;12053;48.878;9.632;2023-04-25T01:41:10;5.15;;;3.10;;
23745;SDS011;12053;48.878;9.632;2023-04-25T01:43:37;3.58;;;2.70;;
23745;SDS011;12053;48.878;9.632;2023-04-25T01:46:04;5.32;;;3.00;;
23745;SDS011;12053;48.878;9.632;2023-04-25T01:48:31;6.65;;;3.20;;
23745;SDS011;12053;48.878;9.632;2023-04-25T01:50:59;3.95;;;3.03;;
23745;SDS011;12053;48.878;9.632;2023-04-25T01:53:26;4.18;;;2.75;;
23745;SDS011;12053;48.878;9.632;2023-04-25T01:55:53;3.22;;;2.92;;
23745;SDS011;12053;48.878;9.632;2023-04-25T01:58:20;2.65;;;2.42;;
23745;SDS011;12053;48.878;9.632;2023-04-25T02:00:47;5.60;;;2.72;;
23745;SDS011;12053;48.878;9.632;2023-04-25T02:03:15;5.70;;;3.05;;
23745;SDS011;12053;48.878;9.632;2023-04-25T02:05:42;7.53;;;3.00;;
23745;SDS011;12053;48.878;9.632;2023-04-25T02:08:09;2.78;;;2.55;;
23745;SDS011;12053;48.878;9.632;2023-04-25T02:10:36;4.55;;;2.70;;
23745;SDS011;12053;48.878;9.632;2023-04-25T02:13:03;2.58;;;2.38;;
23745;SDS011;12053;48.878;9.632;2023-04-25T02:15:31;4.40;;;2.78;;
23745;SDS011;12053;48.878;9.632;2023-04-25T02:17:58;2.65;;;2.45;;
23745;SDS011;12053;48.878;9.632;2023-04-25T02:20:29;3.75;;;2.83;;
23745;SDS011;12053;48.878;9.632;2023-04-25T02:22:57;3.20;;;2.80;;
23745;SDS011;12053;48.878;9.632;2023-04-25T02:25:24;4.38;;;2.72;;
23745;SDS011;12053;48.878;9.632;2023-04-25T02:27:51;2.92;;;2.38;;
23745;SDS011;12053;48.878;9.632;2023-04-25T02:30:19;3.40;;;2.60;;
23745;SDS011;12053;48.878;9.632;2023-04-25T02:32:46;5.00;;;2.85;;
23745;SDS011;12053;48.878;9.632;2023-04-25T02:35:13;4.20;;;2.70;;
23745;SDS011;12053;48.878;9.632;2023-04-25T02:37:40;3.13;;;2.88;;
23745;SDS011;12053;48.878;9.632;2023-04-25T02:40:08;4.28;;;2.75;;
23745;SDS011;12053;48.878;9.632;2023-04-25T02:42:35;4.85;;;3.40;;
23745;SDS011;12053;48.878;9.632;2023-04-25T02:45:02;4.90;;;3.20;;
23745;SDS011;12053;48.878;9.632;2023-04-25T02:47:30;5.05;;;3.03;;
23745;SDS011;12053;48.878;9.632;2023-04-25T02:49:57;4.13;;;3.30;;
23745;SDS011;12053;48.878;9.632;2023-04-25T02:52:25;4.60;;;2.75;;
23745;SDS011;12053;48.878;9.632;2023-04-25T02:54:52;4.50;;;3.00;;
23745;SDS011;12053;48.878;9.632;2023-04-25T02:57:19;4.15;;;2.80;;
23745;SDS011;12053;48.878;9.632;2023-04-25T02:59:46;4.68;;;3.20;;
23745;SDS011;12053;48.878;9.632;2023-04-25T03:02:13;5.82;;;3.10;;
23745;SDS011;12053;48.878;9.632;2023-04-25T03:04:40;4.55;;;2.78;;
23745;SDS011;12053;48.878;9.632;2023-04-25T03:07:08;4.70;;;3.00;;
23745;SDS011;12053;48.878;9.632;2023-04-25T03:09:35;4.53;;;2.78;;
23745;SDS011;12053;48.878;9.632;2023-04-25T03:12:02;4.53;;;2.78;;
23745;SDS011;12053;48.878;9.632;2023-04-25T03:14:30;4.57;;;2.95;;
23745;SDS011;12053;48.878;9.632;2023-04-25T03:16:57;4.20;;;3.25;;
23745;SDS011;12053;48.878;9.632;2023-04-25T03:19:24;4.93;;;3.05;;
23745;SDS011;12053;48.878;9.632;2023-04-25T03:21:51;3.95;;;2.85;;
23745;SDS011;12053;48.878;9.632;2023-04-25T03:24:19;3.67;;;3.03;;
23745;SDS011;12053;48.878;9.632;2023-04-25T03:26:46;4.90;;;3.30;;
23745;SDS011;12053;48.878;9.632;2023-04-25T03:29:14;5.55;;;3.30;;
23745;SDS011;12053;48.878;9.632;2023-04-25T03:31:41;6.78;;;3.67;;
23745;SDS011;12053;48.878;9.632;2023-04-25T03:34:08;7.55;;;4.57;;
23745;SDS011;12053;48.878;9.632;2023-04-25T03:36:35;6.47;;;3.53;;
23745;SDS011;12053;48.878;9.632;2023-04-25T03:39:04;6.03;;;3.38;;
23745;SDS011;12053;48.878;9.632;2023-04-25T03:41:32;6.63;;;3.45;;
23745;SDS011;12053;48.878;9.632;2023-04-25T03:43:59;5.35;;;3.40;;
23745;SDS011;12053;48.878;9.632;2023-04-25T03:46:26;4.70;;;3.30;;
23745;SDS011;12053;48.878;9.632;2023-04-25T03:48:53;4.75;;;3.33;;
23745;SDS011;12053;48.878;9.632;2023-04-25T03:51:20;4.05;;;3.58;;
23745;SDS011;12053;48.878;9.632;2023-04-25T03:53:47;6.40;;;3.22;;
23745;SDS011;12053;48.878;9.632;2023-04-25T03:56:15;4.10;;;3.22;;
23745;SDS011;12053;48.878;9.632;2023-04-25T03:58:42;4.40;;;3.58;;
23745;SDS011;12053;48.878;9.632;2023-04-25T04:01:09;9.25;;;3.45;;
23745;SDS011;12053;48.878;9.632;2023-04-25T04:03:37;6.20;;;3.35;;
23745;SDS011;12053;48.878;9.632;2023-04-25T04:06:05;6.15;;;3.50;;
23745;SDS011;12053;48.878;9.632;2023-04-25T04:08:32;8.70;;;3.50;;
23745;SDS011;12053;48.878;9.632;2023-04-25T04:11:00;4.95;;;3.20;;
23745;SDS011;12053;48.878;9.632;2023-04-25T04:13:27;3.65;;;3.00;;
23745;SDS011;12053;48.878;9.632;2023-04-25T04:15:54;4.65;;;3.33;;
23745;SDS011;12053;48.878;9.632;2023-04-25T04:18:22;5.88;;;3.50;;
23745;SDS011;12053;48.878;9.632;2023-04-25T04:20:49;9.05;;;4.20;;
23745;SDS011;12053;48.878;9.632;2023-04-25T04:23:16;4.68;;;3.85;;
23745;SDS011;12053;48.878;9.632;2023-04-25T04:25:44;5.03;;;4.05;;
23745;SDS011;12053;48.878;9.632;2023-04-25T04:28:11;5.97;;;3.95;;
23745;SDS011;12053;48.878;9.632;2023-04-25T04:30:39;8.95;;;3.97;;
23745;SDS011;12053;48.878;9.632;2023-04-25T04:33:07;3.95;;;3.53;;
23745;SDS011;12053;48.878;9.632;2023-04-25T04:35:34;4.38;;;3.80;;
23745;SDS011;12053;48.878;9.632;2023-04-25T04:38:02;5.40;;;3.95;;
23745;SDS011;12053;48.878;9.632;2023-04-25T04:40:29;6.10;;;3.17;;
23745;SDS011;12053;48.878;9.632;2023-04-25T04:42:57;7.10;;;3.35;;
23745;SDS011;12053;48.878;9.632;2023-04-25T04:45:24;3.50;;;3.20;;
23745;SDS011;12053;48.878;9.632;2023-04-25T04:47:53;5.38;;;3.60;;
23745;SDS011;12053;48.878;9.632;2023-04-25T04:50:21;4.63;;;3.65;;
23745;SDS011;12053;48.878;9.632;2023-04-25T04:52:48;5.05;;;3.47;;
23745;SDS011;12053;48.878;9.632;2023-04-25T04:55:16;7.72;;;3.80;;
23745;SDS011;12053;48.878;9.632;2023-04-25T04:57:43;5.45;;;3.50;;
23745;SDS011;12053;48.878;9.632;2023-04-25T05:00:10;4.22;;;3.30;;
23745;SDS011;12053;48.878;9.632;2023-04-25T05:02:38;6.03;;;3.30;;
23745;SDS011;12053;48.878;9.632;2023-04-25T05:05:06;4.40;;;3.45;;
23745;SDS011;12053;48.878;9.632;2023-04-25T05:07:34;4.72;;;3.67;;
23745;SDS011;12053;48.878;9.632;2023-04-25T05:10:01;5.70;;;4.20;;
23745;SDS011;12053;48.878;9.632;2023-04-25T05:12:28;4.55;;;3.63;;
23745;SDS011;12053;48.878;9.632;2023-04-25T05:14:56;5.82;;;4.03;;
23745;SDS011;12053;48.878;9.632;2023-04-25T05:17:23;8.77;;;4.00;;
23745;SDS011;12053;48.878;9.632;2023-04-25T05:19:50;4.78;;;4.18;;
23745;SDS011;12053;48.878;9.632;2023-04-25T05:22:18;6.47;;;3.95;;
23745;SDS011;12053;48.878;9.632;2023-04-25T05:24:46;7.07;;;4.47;;
23745;SDS011;12053;48.878;9.632;2023-04-25T05:27:16;5.78;;;3.92;;
23745;SDS011;12053;48.878;9.632;2023-04-25T05:29:43;4.43;;;4.00;;
23745;SDS011;12053;48.878;9.632;2023-04-25T05:32:11;4.38;;;3.97;;
23745;SDS011;12053;48.878;9.632;2023-04-25T05:34:38;7.65;;;4.00;;
23745;SDS011;12053;48.878;9.632;2023-04-25T05:37:06;4.75;;;4.30;;
23745;SDS011;12053;48.878;9.632;2023-04-25T05:39:33;5.95;;;4.07;;
23745;SDS011;12053;48.878;9.632;2023-04-25T05:42:00;7.05;;;4.22;;
23745;SDS011;12053;48.878;9.632;2023-04-25T05:44:27;7.43;;;3.95;;
23745;SDS011;12053;48.878;9.632;2023-04-25T05:46:55;5.25;;;4.75;;
23745;SDS011;12053;48.878;9.632;2023-04-25T05:49:22;6.78;;;4.88;;
23745;SDS011;12053;48.878;9.632;2023-04-25T05:51:49;5.00;;;4.43;;
23745;SDS011;12053;48.878;9.632;2023-04-25T05:54:16;5.75;;;4.38;;
23745;SDS011;12053;48.878;9.632;2023-04-25T05:56:43;5.95;;;4.78;;
23745;SDS011;12053;48.878;9.632;2023-04-25T05:59:10;6.93;;;4.25;;
23745;SDS011;12053;48.878;9.632;2023-04-25T06:01:38;7.72;;;4.90;;
23745;SDS011;12053;48.878;9.632;2023-04-25T06:04:05;6.65;;;5.30;;
23745;SDS011;12053;48.878;9.632;2023-04-25T06:06:32;6.50;;;5.63;;
23745;SDS011;12053;48.878;9.632;2023-04-25T06:08:59;6.68;;;5.68;;
23745;SDS011;12053;48.878;9.632;2023-04-25T06:11:27;7.85;;;5.47;;
23745;SDS011;12053;48.878;9.632;2023-04-25T06:13:54;5.22;;;4.60;;
23745;SDS011;12053;48.878;9.632;2023-04-25T06:16:21;6.50;;;5.47;;
23745;SDS011;12053;48.878;9.632;2023-04-25T06:18:48;8.30;;;5.85;;
23745;SDS011;12053;48.878;9.632;2023-04-25T06:21:15;7.88;;;6.30;;
23745;SDS011;12053;48.878;9.632;2023-04-25T06:23:43;7.10;;;5.38;;
23745;SDS011;12053;48.878;9.632;2023-04-25T06:26:10;6.85;;;5.15;;
23745;SDS011;12053;48.878;9.632;2023-04-25T06:28:37;7.55;;;5.18;;
23745;SDS011;12053;48.878;9.632;2023-04-25T06:31:04;7.20;;;5.22;;
23745;SDS011;12053;48.878;9.632;2023-04-25T06:33:31;5.65;;;4.93;;
23745;SDS011;12053;48.878;9.632;2023-04-25T06:35:58;6.32;;;5.40;;
23745;SDS011;12053;48.878;9.632;2023-04-25T06:38:26;6.53;;;5.53;;
23745;SDS011;12053;48.878;9.632;2023-04-25T06:40:53;7.53;;;5.60;;
23745;SDS011;12053;48.878;9.632;2023-04-25T06:43:20;7.18;;;5.63;;
23745;SDS011;12053;48.878;9.632;2023-04-25T06:45:47;7.28;;;6.28;;
23745;SDS011;12053;48.878;9.632;2023-04-25T06:48:14;6.93;;;5.80;;
23745;SDS011;12053;48.878;9.632;2023-04-25T06:50:42;10.65;;;6.18;;
23745;SDS011;12053;48.878;9.632;2023-04-25T06:53:09;6.13;;;5.53;;
23745;SDS011;12053;48.878;9.632;2023-04-25T06:55:37;7.60;;;5.30;;
23745;SDS011;12053;48.878;9.632;2023-04-25T06:58:05;7.30;;;5.90;;
23745;SDS011;12053;48.878;9.632;2023-04-25T07:00:33;7.10;;;6.03;;
23745;SDS011;12053;48.878;9.632;2023-04-25T07:03:00;10.43;;;7.53;;
23745;SDS011;12053;48.878;9.632;2023-04-25T07:05:28;8.18;;;6.90;;
23745;SDS011;12053;48.878;9.632;2023-04-25T07:07:56;8.50;;;7.55;;
23745;SDS011;12053;48.878;9.632;2023-04-25T07:10:23;6.97;;;5.80;;
23745;SDS011;12053;48.878;9.632;2023-04-25T07:12:51;8.88;;;7.90;;
23745;SDS011;12053;48.878;9.632;2023-04-25T07:15:18;7.75;;;5.35;;
23745;SDS011;12053;48.878;9.632;2023-04-25T07:17:46;7.65;;;6.70;;
23745;SDS011;12053;48.878;9.632;2023-04-25T07:20:13;7.05;;;5.97;;
23745;SDS011;12053;48.878;9.632;2023-04-25T07:22:40;8.40;;;6.50;;
23745;SDS011;12053;48.878;9.632;2023-04-25T07:25:07;9.95;;;7.68;;
23745;SDS011;12053;48.878;9.632;2023-04-25T07:27:35;4.97;;;4.55;;
23745;SDS011;12053;48.878;9.632;2023-04-25T07:30:02;4.20;;;3.58;;
23745;SDS011;12053;48.878;9.632;2023-04-25T07:32:30;6.50;;;5.10;;
23745;SDS011;12053;48.878;9.632;2023-04-25T07:34:57;4.97;;;4.47;;
23745;SDS011;12053;48.878;9.632;2023-04-25T07:37:24;4.30;;;3.90;;
23745;SDS011;12053;48.878;9.632;2023-04-25T07:39:52;3.78;;;3.42;;
23745;SDS011;12053;48.878;9.632;2023-04-25T07:42:19;3.58;;;3.28;;
23745;SDS011;12053;48.878;9.632;2023-04-25T07:44:47;3.45;;;3.15;;
23745;SDS011;12053;48.878;9.632;2023-04-25T07:47:14;4.85;;;3.50;;
23745;SDS011;12053;48.878;9.632;2023-04-25T07:49:41;3.80;;;3.50;;
23745;SDS011;12053;48.878;9.632;2023-04-25T07:52:08;8.07;;;6.20;;
23745;SDS011;12053;48.878;9.632;2023-04-25T07:54:35;4.90;;;4.30;;
23745;SDS011;12053;48.878;9.632;2023-04-25T07:57:02;3.92;;;3.25;;
23745;SDS011;12053;48.878;9.632;2023-04-25T07:59:32;10.40;;;4.72;;
23745;SDS011;12053;48.878;9.632;2023-04-25T08:01:59;3.97;;;3.58;;
23745;SDS011;12053;48.878;9.632;2023-04-25T08:04:27;3.28;;;2.97;;
23745;SDS011;12053;48.878;9.632;2023-04-25T08:06:54;4.00;;;3.55;;
23745;SDS011;12053;48.878;9.632;2023-04-25T08:09:22;4.32;;;3.83;;
23745;SDS011;12053;48.878;9.632;2023-04-25T08:11:49;4.18;;;3.78;;
23745;SDS011;12053;48.878;9.632;2023-04-25T08:14:16;4.88;;;4.20;;
23745;SDS011;12053;48.878;9.632;2023-04-25T08:16:43;3.83;;;3.22;;
23745;SDS011;12053;48.878;9.632;2023-04-25T08:19:11;4.28;;;3.88;;
23745;SDS011;12053;48.878;9.632;2023-04-25T08:21:38;4.10;;;3.60;;
23745;SDS011;12053;48.878;9.632;2023-04-25T08:24:05;3.50;;;3.13;;
23745;SDS011;12053;48.878;9.632;2023-04-25T08:26:32;4.45;;;3.42;;
23745;SDS011;12053;48.878;9.632;2023-04-25T08:29:00;4.05;;;3.65;;
23745;SDS011;12053;48.878;9.632;2023-04-25T08:31:27;4.22;;;3.83;;
23745;SDS011;12053;48.878;9.632;2023-04-25T08:33:55;4.78;;;3.85;;
23745;SDS011;12053;48.878;9.632;2023-04-25T08:36:22;5.00;;;4.30;;
23745;SDS011;12053;48.878;9.632;2023-04-25T08:39:05;6.32;;;4.15;;
23745;SDS011;12053;48.878;9.632;2023-04-25T08:41:33;5.13;;;4.35;;
23745;SDS011;12053;48.878;9.632;2023-04-25T08:44:00;6.07;;;4.57;;
23745;SDS011;12053;48.878;9.632;2023-04-25T08:46:27;5.30;;;4.70;;
23745;SDS011;12053;48.878;9.632;2023-04-25T08:48:56;5.88;;;4.93;;
23745;SDS011;12053;48.878;9.632;2023-04-25T08:51:27;6.32;;;4.88;;
23745;SDS011;12053;48.878;9.632;2023-04-25T08:53:54;6.57;;;4.80;;
23745;SDS011;12053;48.878;9.632;2023-04-25T08:56:27;5.72;;;5.13;;
23745;SDS011;12053;48.878;9.632;2023-04-25T08:58:56;6.53;;;5.65;;
23745;SDS011;12053;48.878;9.632;2023-04-25T09:01:23;6.10;;;4.40;;
23745;SDS011;12053;48.878;9.632;2023-04-25T09:03:50;5.28;;;4.75;;
23745;SDS011;12053;48.878;9.632;2023-04-25T09:06:18;5.78;;;4.72;;
23745;SDS011;12053;48.878;9.632;2023-04-25T09:08:45;8.88;;;5.30;;
23745;SDS011;12053;48.878;9.632;2023-04-25T09:11:13;8.15;;;5.90;;
23745;SDS011;12053;48.878;9.632;2023-04-25T09:13:41;6.20;;;4.60;;
23745;SDS011;12053;48.878;9.632;2023-04-25T09:16:08;5.05;;;4.55;;
23745;SDS011;12053;48.878;9.632;2023-04-25T09:18:35;7.43;;;5.28;;
23745;SDS011;12053;48.878;9.632;2023-04-25T09:21:09;7.07;;;6.38;;
23745;SDS011;12053;48.878;9.632;2023-04-25T09:23:40;8.73;;;6.80;;
23745;SDS011;12053;48.878;9.632;2023-04-25T09:26:08;9.02;;;6.72;;
23745;SDS011;12053;48.878;9.632;2023-04-25T09:28:37;9.48;;;5.78;;
23745;SDS011;12053;48.878;9.632;2023-04-25T09:31:04;7.45;;;5.88;;
23745;SDS011;12053;48.878;9.632;2023-04-25T09:33:32;7.82;;;5.18;;
23745;SDS011;12053;48.878;9.632;2023-04-25T09:36:02;7.60;;;5.35;;
23745;SDS011;12053;48.878;9.632;2023-04-25T09:38:30;6.22;;;4.93;;
23745;SDS011;12053;48.878;9.632;2023-04-25T09:40:57;10.40;;;6.00;;
23745;SDS011;12053;48.878;9.632;2023-04-25T09:43:25;7.00;;;6.03;;
23745;SDS011;12053;48.878;9.632;2023-04-25T09:45:53;8.32;;;5.55;;
23745;SDS011;12053;48.878;9.632;2023-04-25T09:48:24;8.30;;;6.73;;
23745;SDS011;12053;48.878;9.632;2023-04-25T09:53:35;5.93;;;5.20;;
23745;SDS011;12053;48.878;9.632;2023-04-25T09:56:06;5.95;;;4.95;;
23745;SDS011;12053;48.878;9.632;2023-04-25T09:58:34;7.55;;;5.60;;
23745;SDS011;12053;48.878;9.632;2023-04-25T10:01:03;6.70;;;5.50;;
23745;SDS011;12053;48.878;9.632;2023-04-25T10:03:32;7.18;;;6.25;;
23745;SDS011;12053;48.878;9.632;2023-04-25T10:06:00;11.23;;;7.50;;
23745;SDS011;12053;48.878;9.632;2023-04-25T10:08:30;7.45;;;5.80;;
23745;SDS011;12053;48.878;9.632;2023-04-25T10:11:04;6.63;;;6.03;;
23745;SDS011;12053;48.878;9.632;2023-04-25T10:13:33;11.48;;;8.00;;
23745;SDS011;12053;48.878;9.632;2023-04-25T10:16:04;8.75;;;7.18;;
23745;SDS011;12053;48.878;9.632;2023-04-25T10:18:31;7.85;;;6.63;;
23745;SDS011;12053;48.878;9.632;2023-04-25T10:21:02;9.95;;;7.07;;
23745;SDS011;12053;48.878;9.632;2023-04-25T10:23:31;9.32;;;7.40;;
23745;SDS011;12053;48.878;9.632;2023-04-25T10:26:00;10.48;;;8.65;;
23745;SDS011;12053;48.878;9.632;2023-04-25T10:28:28;11.25;;;8.80;;
23745;SDS011;12053;48.878;9.632;2023-04-25T10:31:04;10.40;;;8.63;;
23745;SDS011;12053;48.878;9.632;2023-04-25T10:33:35;13.18;;;9.90;;
23745;SDS011;12053;48.878;9.632;2023-04-25T10:38:56;10.65;;;9.13;;
23745;SDS011;12053;48.878;9.632;2023-04-25T10:41:45;11.65;;;8.60;;
23745;SDS011;12053;48.878;9.632;2023-04-25T10:44:13;12.52;;;7.97;;
23745;SDS011;12053;48.878;9.632;2023-04-25T10:46:41;11.70;;;8.32;;
23745;SDS011;12053;48.878;9.632;2023-04-25T10:49:08;9.38;;;7.07;;
23745;SDS011;12053;48.878;9.632;2023-04-25T10:51:39;10.90;;;6.75;;
23745;SDS011;12053;48.878;9.632;2023-04-25T10:54:20;7.72;;;6.93;;
23745;SDS011;12053;48.878;9.632;2023-04-25T10:56:49;9.70;;;7.03;;
23745;SDS011;12053;48.878;9.632;2023-04-25T10:59:18;8.93;;;6.20;;
23745;SDS011;12053;48.878;9.632;2023-04-25T11:01:46;6.80;;;6.10;;
23745;SDS011;12053;48.878;9.632;2023-04-25T11:04:19;8.75;;;6.57;;
23745;SDS011;12053;48.878;9.632;2023-04-25T11:06:55;8.15;;;5.88;;
23745;SDS011;12053;48.878;9.632;2023-04-25T11:09:45;29.45;;;13.40;;
23745;SDS011;12053;48.878;9.632;2023-04-25T11:12:12;5.15;;;4.30;;
23745;SDS011;12053;48.878;9.632;2023-04-25T11:14:40;4.72;;;4.22;;
23745;SDS011;12053;48.878;9.632;2023-04-25T11:17:07;4.95;;;4.40;;
23745;SDS011;12053;48.878;9.632;2023-04-25T11:19:35;5.13;;;4.63;;
23745;SDS011;12053;48.878;9.632;2023-04-25T11:22:02;7.00;;;5.25;;
23745;SDS011;12053;48.878;9.632;2023-04-25T11:24:30;6.75;;;5.57;;
23745;SDS011;12053;48.878;9.632;2023-04-25T11:26:58;7.80;;;5.13;;
23745;SDS011;12053;48.878;9.632;2023-04-25T11:29:26;6.93;;;5.72;;
23745;SDS011;12053;48.878;9.632;2023-04-25T11:31:54;8.50;;;5.90;;
23745;SDS011;12053;48.878;9.632;2023-04-25T11:34:25;9.15;;;6.50;;
23745;SDS011;12053;48.878;9.632;2023-04-25T11:36:52;8.05;;;5.35;;
23745;SDS011;12053;48.878;9.632;2023-04-25T11:39:19;6.15;;;5.53;;
23745;SDS011;12053;48.878;9.632;2023-04-25T11:41:47;6.10;;;5.43;;
23745;SDS011;12053;48.878;9.632;2023-04-25T11:44:17;8.05;;;6.10;;
23745;SDS011;12053;48.878;9.632;2023-04-25T11:46:45;9.60;;;5.90;;
23745;SDS011;12053;48.878;9.632;2023-04-25T11:49:13;7.75;;;5.22;;
23745;SDS011;12053;48.878;9.632;2023-04-25T11:51:41;9.77;;;6.28;;
23745;SDS011;12053;48.878;9.632;2023-04-25T11:54:09;7.57;;;6.25;;
23745;SDS011;12053;48.878;9.632;2023-04-25T11:56:41;7.47;;;6.03;;
23745;SDS011;12053;48.878;9.632;2023-04-25T11:59:08;9.90;;;6.78;;
23745;SDS011;12053;48.878;9.632;2023-04-25T12:01:37;12.27;;;6.32;;
23745;SDS011;12053;48.878;9.632;2023-04-25T12:04:11;10.63;;;7.10;;
23745;SDS011;12053;48.878;9.632;2023-04-25T12:06:40;10.15;;;7.00;;
23745;SDS011;12053;48.878;9.632;2023-04-25T12:09:08;7.57;;;6.63;;
23745;SDS011;12053;48.878;9.632;2023-04-25T12:14:10;11.15;;;7.57;;
23745;SDS011;12053;48.878;9.632;2023-04-25T12:16:41;8.63;;;7.13;;
23745;SDS011;12053;48.878;9.632;2023-04-25T12:19:09;8.50;;;6.85;;
23745;SDS011;12053;48.878;9.632;2023-04-25T12:21:36;7.28;;;5.93;;
23745;SDS011;12053;48.878;9.632;2023-04-25T12:24:23;8.35;;;5.82;;
23745;SDS011;12053;48.878;9.632;2023-04-25T12:27:01;6.95;;;5.68;;
23745;SDS011;12053;48.878;9.632;2023-04-25T12:29:30;7.40;;;5.82;;
23745;SDS011;12053;48.878;9.632;2023-04-25T12:32:13;7.78;;;5.50;;
23745;SDS011;12053;48.878;9.632;2023-04-25T12:34:40;8.30;;;5.45;;
23745;SDS011;12053;48.878;9.632;2023-04-25T12:37:07;6.65;;;5.32;;
23745;SDS011;12053;48.878;9.632;2023-04-25T12:39:34;7.07;;;5.85;;
23745;SDS011;12053;48.878;9.632;2023-04-25T12:42:02;7.60;;;5.93;;
23745;SDS011;12053;48.878;9.632;2023-04-25T12:44:32;6.60;;;5.18;;
23745;SDS011;12053;48.878;9.632;2023-04-25T12:46:59;7.85;;;6.07;;
23745;SDS011;12053;48.878;9.632;2023-04-25T12:49:26;7.28;;;6.20;;
23745;SDS011;12053;48.878;9.632;2023-04-25T12:51:53;7.65;;;5.60;;
23745;SDS011;12053;48.878;9.632;2023-04-25T12:54:21;9.45;;;5.97;;
23745;SDS011;12053;48.878;9.632;2023-04-25T12:56:48;8.63;;;5.85;;
23745;SDS011;12053;48.878;9.632;2023-04-25T12:59:16;10.88;;;6.35;;
23745;SDS011;12053;48.878;9.632;2023-04-25T13:01:44;8.50;;;5.95;;
23745;SDS011;12053;48.878;9.632;2023-04-25T13:04:11;7.57;;;6.30;;
23745;SDS011;12053;48.878;9.632;2023-04-25T13:06:39;8.50;;;5.38;;
23745;SDS011;12053;48.878;9.632;2023-04-25T13:09:06;10.50;;;6.43;;
23745;SDS011;12053;48.878;9.632;2023-04-25T13:11:33;6.03;;;5.30;;
23745;SDS011;12053;48.878;9.632;2023-04-25T13:14:00;5.68;;;5.00;;
23745;SDS011;12053;48.878;9.632;2023-04-25T13:16:28;6.70;;;5.97;;
23745;SDS011;12053;48.878;9.632;2023-04-25T13:18:55;6.75;;;5.50;;
23745;SDS011;12053;48.878;9.632;2023-04-25T13:21:22;7.05;;;5.93;;
23745;SDS011;12053;48.878;9.632;2023-04-25T13:23:49;7.35;;;6.15;;
23745;SDS011;12053;48.878;9.632;2023-04-25T13:26:17;6.80;;;6.10;;
23745;SDS011;12053;48.878;9.632;2023-04-25T13:28:44;6.40;;;5.53;;
23745;SDS011;12053;48.878;9.632;2023-04-25T13:31:11;8.98;;;6.78;;
23745;SDS011;12053;48.878;9.632;2023-04-25T13:33:38;8.32;;;7.18;;
23745;SDS011;12053;48.878;9.632;2023-04-25T13:36:06;7.22;;;5.95;;
23745;SDS011;12053;48.878;9.632;2023-04-25T13:38:33;7.63;;;6.80;;
23745;SDS011;12053;48.878;9.632;2023-04-25T13:41:00;8.52;;;7.05;;
23745;SDS011;12053;48.878;9.632;2023-04-25T13:43:27;9.27;;;6.80;;
23745;SDS011;12053;48.878;9.632;2023-04-25T13:45:54;8.32;;;7.50;;
23745;SDS011;12053;48.878;9.632;2023-04-25T13:48:22;12.93;;;10.93;;
23745;SDS011;12053;48.878;9.632;2023-04-25T13:50:49;9.23;;;8.10;;
23745;SDS011;12053;48.878;9.632;2023-04-25T13:53:16;11.70;;;7.90;;
23745;SDS011;12053;48.878;9.632;2023-04-25T13:55:43;12.48;;;8.93;;
23745;SDS011;12053;48.878;9.632;2023-04-25T13:58:11;12.55;;;8.65;;
23745;SDS011;12053;48.878;9.632;2023-04-25T14:00:38;14.43;;;8.02;;
23745;SDS011;12053;48.878;9.632;2023-04-25T14:03:06;13.10;;;9.35;;
23745;SDS011;12053;48.878;9.632;2023-04-25T14:05:35;13.00;;;8.63;;
23745;SDS011;12053;48.878;9.632;2023-04-25T14:08:07;9.23;;;7.77;;
23745;SDS011;12053;48.878;9.632;2023-04-25T14:10:34;11.80;;;9.25;;
23745;SDS011;12053;48.878;9.632;2023-04-25T14:13:02;13.50;;;9.80;;
23745;SDS011;12053;48.878;9.632;2023-04-25T14:15:31;15.30;;;9.52;;
23745;SDS011;12053;48.878;9.632;2023-04-25T14:17:59;13.75;;;10.68;;
23745;SDS011;12053;48.878;9.632;2023-04-25T14:20:27;15.18;;;10.30;;
23745;SDS011;12053;48.878;9.632;2023-04-25T14:22:54;13.65;;;8.95;;
23745;SDS011;12053;48.878;9.632;2023-04-25T14:25:23;13.40;;;8.90;;
23745;SDS011;12053;48.878;9.632;2023-04-25T14:27:51;11.90;;;9.05;;
23745;SDS011;12053;48.878;9.632;2023-04-25T14:30:18;14.00;;;10.13;;
23745;SDS011;12053;48.878;9.632;2023-04-25T14:32:46;15.23;;;10.20;;
23745;SDS011;12053;48.878;9.632;2023-04-25T14:35:13;17.65;;;10.82;;
23745;SDS011;12053;48.878;9.632;2023-04-25T14:37:41;14.48;;;11.23;;
23745;SDS011;12053;48.878;9.632;2023-04-25T14:40:08;17.25;;;12.25;;
23745;SDS011;12053;48.878;9.632;2023-04-25T14:42:37;18.52;;;13.45;;
23745;SDS011;12053;48.878;9.632;2023-04-25T14:45:04;22.02;;;14.82;;
23745;SDS011;12053;48.878;9.632;2023-04-25T14:47:33;20.50;;;13.60;;
23745;SDS011;12053;48.878;9.632;2023-04-25T14:50:00;19.17;;;13.57;;
23745;SDS011;12053;48.878;9.632;2023-04-25T14:52:28;16.95;;;11.45;;
23745;SDS011;12053;48.878;9.632;2023-04-25T14:54:55;15.57;;;11.32;;
23745;SDS011;12053;48.878;9.632;2023-04-25T14:57:22;17.45;;;11.38;;